CCM26F LFKJ-EBCI
Flight info
| Callsign | CCM26F |
|---|---|
| Flight time | 1h 36m |
| Altitude | 34000 |
| Route | LONSU DCT NOSTA DCT CERVI DCT DEVDI DCT SUTAL N852 GESLO/N0441F280 N852 LNO |
| Aircraft | A320/M-SDE3FGHIRWY/LB1 |
Departure
| Time | 2026-05-07 14:48 |
|---|---|
| Airport | Ajaccio Napoléon Bonaparte airport (LFKJ) |
Arrival
| Time | 2026-05-07 16:24 |
|---|---|
| Airport | Brussels South Charleroi Airport (EBCI) |
| Time | Latitude | Longitude | Altitude | Speed | Heading |
|---|---|---|---|---|---|
| 2026-05-07 14:35 | 41.91970 | 8.79570 | 21 ft | 0 kts | 345° |
| 2026-05-07 14:39 | 41.91969 | 8.79571 | 21 ft | 2 kts | 345° |
| 2026-05-07 14:39 | 41.91944 | 8.79579 | 21 ft | 4 kts | 342° |
| 2026-05-07 14:40 | 41.91925 | 8.79592 | 24 ft | 2 kts | 318° |
| 2026-05-07 14:40 | 41.91905 | 8.79609 | 23 ft | 4 kts | 1° |
| 2026-05-07 14:40 | 41.91881 | 8.79597 | 23 ft | 4 kts | 34° |
| 2026-05-07 14:40 | 41.91867 | 8.79585 | 22 ft | 0 kts | 25° |
| 2026-05-07 14:42 | 41.91875 | 8.79590 | 24 ft | 3 kts | 25° |
| 2026-05-07 14:43 | 41.91907 | 8.79611 | 21 ft | 8 kts | 26° |
| 2026-05-07 14:43 | 41.91973 | 8.79652 | 22 ft | 12 kts | 25° |
| 2026-05-07 14:43 | 41.92053 | 8.79702 | 23 ft | 13 kts | 25° |
| 2026-05-07 14:43 | 41.92148 | 8.79761 | 21 ft | 17 kts | 25° |
| 2026-05-07 14:44 | 41.92259 | 8.79830 | 22 ft | 18 kts | 25° |
| 2026-05-07 14:44 | 41.92376 | 8.79902 | 22 ft | 19 kts | 24° |
| 2026-05-07 14:44 | 41.92484 | 8.79970 | 21 ft | 16 kts | 25° |
| 2026-05-07 14:44 | 41.92573 | 8.80026 | 23 ft | 13 kts | 25° |
| 2026-05-07 14:45 | 41.92651 | 8.80074 | 22 ft | 12 kts | 25° |
| 2026-05-07 14:45 | 41.92718 | 8.80116 | 23 ft | 10 kts | 25° |
| 2026-05-07 14:45 | 41.92774 | 8.80160 | 21 ft | 9 kts | 36° |
| 2026-05-07 14:45 | 41.92837 | 8.80236 | 21 ft | 14 kts | 45° |
| 2026-05-07 14:46 | 41.92906 | 8.80330 | 21 ft | 13 kts | 45° |
| 2026-05-07 14:46 | 41.92960 | 8.80416 | 22 ft | 11 kts | 65° |
| 2026-05-07 14:46 | 41.92956 | 8.80499 | 26 ft | 7 kts | 113° |
| 2026-05-07 14:46 | 41.92943 | 8.80538 | 26 ft | 5 kts | 114° |
| 2026-05-07 14:47 | 41.92908 | 8.80565 | 27 ft | 7 kts | 193° |
| 2026-05-07 14:47 | 41.92893 | 8.80556 | 26 ft | 0 kts | 204° |
| 2026-05-07 14:48 | 41.92781 | 8.80488 | 27 ft | 52 kts | 205° |
| 2026-05-07 14:48 | 41.92238 | 8.80149 | 23 ft | 117 kts | 205° |
| 2026-05-07 14:48 | 41.91354 | 8.79607 | 227 ft | 146 kts | 204° |
| 2026-05-07 14:48 | 41.90465 | 8.78954 | 836 ft | 149 kts | 227° |
| 2026-05-07 14:49 | 41.89928 | 8.77774 | 1397 ft | 154 kts | 242° |
| 2026-05-07 14:49 | 41.89369 | 8.76445 | 1770 ft | 172 kts | 239° |
| 2026-05-07 14:49 | 41.88738 | 8.74990 | 2151 ft | 189 kts | 240° |
| 2026-05-07 14:49 | 41.88044 | 8.73390 | 2548 ft | 207 kts | 240° |
| 2026-05-07 14:50 | 41.87281 | 8.71639 | 2922 ft | 228 kts | 240° |
| 2026-05-07 14:50 | 41.86435 | 8.69693 | 3278 ft | 253 kts | 240° |
| 2026-05-07 14:50 | 41.85534 | 8.67623 | 3946 ft | 264 kts | 239° |
| 2026-05-07 14:50 | 41.84597 | 8.65473 | 4877 ft | 266 kts | 240° |
| 2026-05-07 14:51 | 41.83979 | 8.63132 | 5762 ft | 270 kts | 264° |
| 2026-05-07 14:51 | 41.84166 | 8.60618 | 6607 ft | 275 kts | 288° |
| 2026-05-07 14:51 | 41.85135 | 8.58428 | 7420 ft | 279 kts | 313° |
| 2026-05-07 14:51 | 41.86732 | 8.56926 | 8268 ft | 285 kts | 334° |
| 2026-05-07 14:52 | 41.88576 | 8.55872 | 9098 ft | 289 kts | 335° |
| 2026-05-07 14:52 | 41.90410 | 8.54818 | 9913 ft | 292 kts | 334° |
| 2026-05-07 14:52 | 41.92295 | 8.53712 | 10557 ft | 301 kts | 334° |
| 2026-05-07 14:52 | 41.94290 | 8.52526 | 10798 ft | 324 kts | 334° |
| 2026-05-07 14:53 | 41.96433 | 8.51248 | 10980 ft | 348 kts | 334° |
| 2026-05-07 14:53 | 41.98667 | 8.49917 | 11395 ft | 360 kts | 334° |
| 2026-05-07 14:53 | 42.00982 | 8.48542 | 12039 ft | 365 kts | 334° |
| 2026-05-07 14:53 | 42.03328 | 8.47153 | 12729 ft | 370 kts | 334° |
| 2026-05-07 14:54 | 42.05699 | 8.45749 | 13412 ft | 374 kts | 334° |
| 2026-05-07 14:54 | 42.08100 | 8.44325 | 14058 ft | 378 kts | 334° |
| 2026-05-07 14:54 | 42.08962 | 8.43813 | 14276 ft | 379 kts | 334° |
| 2026-05-07 14:54 | 42.10446 | 8.42931 | 14670 ft | 380 kts | 334° |
| 2026-05-07 14:55 | 42.12872 | 8.41486 | 15319 ft | 382 kts | 334° |
| 2026-05-07 14:55 | 42.15325 | 8.40024 | 15944 ft | 385 kts | 334° |
| 2026-05-07 14:55 | 42.17759 | 8.38573 | 16545 ft | 388 kts | 334° |
| 2026-05-07 14:55 | 42.20240 | 8.37092 | 17147 ft | 391 kts | 333° |
| 2026-05-07 14:56 | 42.22747 | 8.35593 | 17740 ft | 395 kts | 333° |
| 2026-05-07 14:56 | 42.25274 | 8.34081 | 18339 ft | 398 kts | 333° |
| 2026-05-07 14:56 | 42.27826 | 8.32555 | 18848 ft | 401 kts | 333° |
| 2026-05-07 14:56 | 42.30392 | 8.31021 | 19382 ft | 404 kts | 333° |
| 2026-05-07 14:57 | 42.32973 | 8.29474 | 19947 ft | 406 kts | 332° |
| 2026-05-07 14:57 | 42.35534 | 8.27937 | 20466 ft | 408 kts | 332° |
| 2026-05-07 14:57 | 42.38151 | 8.26362 | 20983 ft | 410 kts | 332° |
| 2026-05-07 14:57 | 42.40772 | 8.24778 | 21476 ft | 412 kts | 332° |
| 2026-05-07 14:58 | 42.43364 | 8.23210 | 21965 ft | 415 kts | 332° |
| 2026-05-07 14:58 | 42.46008 | 8.21612 | 22446 ft | 417 kts | 331° |
| 2026-05-07 14:58 | 42.48677 | 8.20002 | 22915 ft | 419 kts | 331° |
| 2026-05-07 14:58 | 42.51356 | 8.18386 | 23373 ft | 421 kts | 331° |
| 2026-05-07 14:59 | 42.54009 | 8.16787 | 23755 ft | 423 kts | 331° |
| 2026-05-07 14:59 | 42.56713 | 8.15153 | 24121 ft | 425 kts | 330° |
| 2026-05-07 14:59 | 42.59425 | 8.13509 | 24477 ft | 427 kts | 330° |
| 2026-05-07 14:59 | 42.62152 | 8.11853 | 24829 ft | 429 kts | 330° |
| 2026-05-07 15:00 | 42.64850 | 8.10213 | 25169 ft | 430 kts | 329° |
| 2026-05-07 15:00 | 42.67596 | 8.08543 | 25511 ft | 432 kts | 329° |
| 2026-05-07 15:00 | 42.70343 | 8.06869 | 25841 ft | 434 kts | 329° |
| 2026-05-07 15:00 | 42.73104 | 8.05185 | 26170 ft | 435 kts | 329° |
| 2026-05-07 15:01 | 42.74943 | 8.04065 | 26412 ft | 436 kts | 329° |
| 2026-05-07 15:01 | 42.77793 | 8.02541 | 26728 ft | 444 kts | 336° |
| 2026-05-07 15:01 | 42.81847 | 8.01329 | 27127 ft | 453 kts | 342° |
| 2026-05-07 15:01 | 42.84959 | 8.00550 | 27413 ft | 455 kts | 342° |
| 2026-05-07 15:02 | 42.87068 | 8.00019 | 27600 ft | 456 kts | 342° |
| 2026-05-07 15:02 | 42.90160 | 7.99237 | 27871 ft | 458 kts | 341° |
| 2026-05-07 15:02 | 42.93305 | 7.98436 | 28132 ft | 459 kts | 341° |
| 2026-05-07 15:02 | 42.96460 | 7.97631 | 28409 ft | 461 kts | 341° |
| 2026-05-07 15:03 | 42.99622 | 7.96822 | 28659 ft | 462 kts | 341° |
| 2026-05-07 15:03 | 43.02759 | 7.96015 | 28884 ft | 464 kts | 341° |
| 2026-05-07 15:03 | 43.05932 | 7.95198 | 29222 ft | 464 kts | 341° |
| 2026-05-07 15:03 | 43.09109 | 7.94384 | 29555 ft | 463 kts | 341° |
| 2026-05-07 15:04 | 43.12276 | 7.93583 | 29901 ft | 462 kts | 341° |
| 2026-05-07 15:04 | 43.15438 | 7.92783 | 30207 ft | 461 kts | 341° |
| 2026-05-07 15:04 | 43.18602 | 7.91974 | 30501 ft | 461 kts | 341° |
| 2026-05-07 15:04 | 43.21758 | 7.91157 | 30760 ft | 461 kts | 341° |
| 2026-05-07 15:05 | 43.24874 | 7.90346 | 31026 ft | 461 kts | 341° |
| 2026-05-07 15:05 | 43.28039 | 7.89528 | 31303 ft | 461 kts | 341° |
| 2026-05-07 15:05 | 43.31190 | 7.88719 | 31580 ft | 460 kts | 341° |
| 2026-05-07 15:05 | 43.34346 | 7.87911 | 31859 ft | 460 kts | 341° |
| 2026-05-07 15:06 | 43.37496 | 7.87100 | 32155 ft | 460 kts | 342° |
| 2026-05-07 15:06 | 43.40646 | 7.86286 | 32424 ft | 460 kts | 342° |
| 2026-05-07 15:06 | 43.43756 | 7.85484 | 32696 ft | 459 kts | 342° |
| 2026-05-07 15:06 | 43.46900 | 7.84669 | 32974 ft | 459 kts | 341° |
| 2026-05-07 15:07 | 43.50050 | 7.83847 | 33260 ft | 458 kts | 341° |
| 2026-05-07 15:07 | 43.53153 | 7.83037 | 33536 ft | 458 kts | 341° |
| 2026-05-07 15:07 | 43.56301 | 7.82220 | 33819 ft | 458 kts | 341° |
| 2026-05-07 15:07 | 43.59439 | 7.81409 | 33984 ft | 459 kts | 342° |
| 2026-05-07 15:08 | 43.65735 | 7.79777 | 34005 ft | 460 kts | 342° |
| 2026-05-07 15:08 | 43.71989 | 7.78133 | 34005 ft | 460 kts | 342° |
| 2026-05-07 15:09 | 43.78292 | 7.76479 | 34014 ft | 460 kts | 342° |
| 2026-05-07 15:09 | 43.84624 | 7.75264 | 34009 ft | 466 kts | 349° |
| 2026-05-07 15:10 | 43.91102 | 7.74670 | 34008 ft | 466 kts | 349° |
| 2026-05-07 15:10 | 43.97586 | 7.74063 | 34034 ft | 466 kts | 349° |
| 2026-05-07 15:11 | 44.04017 | 7.73445 | 34025 ft | 465 kts | 349° |
| 2026-05-07 15:11 | 44.10483 | 7.72828 | 34011 ft | 466 kts | 349° |
| 2026-05-07 15:12 | 44.16929 | 7.72223 | 34024 ft | 465 kts | 349° |
| 2026-05-07 15:12 | 44.23403 | 7.71605 | 34008 ft | 464 kts | 349° |
| 2026-05-07 15:13 | 44.29859 | 7.70986 | 33992 ft | 464 kts | 349° |
| 2026-05-07 15:13 | 44.36309 | 7.70364 | 34007 ft | 464 kts | 349° |
| 2026-05-07 15:14 | 44.42739 | 7.69743 | 33998 ft | 464 kts | 349° |
| 2026-05-07 15:14 | 44.49154 | 7.69127 | 33989 ft | 464 kts | 349° |
| 2026-05-07 15:15 | 44.55575 | 7.68511 | 33984 ft | 463 kts | 349° |
| 2026-05-07 15:15 | 44.62023 | 7.67897 | 33978 ft | 463 kts | 349° |
| 2026-05-07 15:16 | 44.68439 | 7.67277 | 33977 ft | 463 kts | 349° |
| 2026-05-07 15:16 | 44.74879 | 7.66638 | 33995 ft | 463 kts | 349° |
| 2026-05-07 15:17 | 44.81322 | 7.66011 | 33992 ft | 463 kts | 349° |
| 2026-05-07 15:17 | 44.87735 | 7.65399 | 33979 ft | 462 kts | 349° |
| 2026-05-07 15:18 | 44.94123 | 7.64778 | 34005 ft | 462 kts | 349° |
| 2026-05-07 15:18 | 45.00543 | 7.64142 | 33997 ft | 462 kts | 350° |
| 2026-05-07 15:19 | 45.06952 | 7.63510 | 33991 ft | 461 kts | 349° |
| 2026-05-07 15:19 | 45.13340 | 7.62878 | 34009 ft | 461 kts | 350° |
| 2026-05-07 15:20 | 45.19742 | 7.62252 | 33999 ft | 461 kts | 350° |
| 2026-05-07 15:20 | 45.26147 | 7.61623 | 33993 ft | 460 kts | 349° |
| 2026-05-07 15:21 | 45.32499 | 7.61000 | 33987 ft | 460 kts | 349° |
| 2026-05-07 15:21 | 45.38884 | 7.60368 | 34001 ft | 459 kts | 349° |
| 2026-05-07 15:22 | 45.45265 | 7.59733 | 34002 ft | 458 kts | 349° |
| 2026-05-07 15:22 | 45.51600 | 7.59092 | 33996 ft | 458 kts | 349° |
| 2026-05-07 15:23 | 45.57961 | 7.58450 | 34013 ft | 457 kts | 349° |
| 2026-05-07 15:23 | 45.64267 | 7.57820 | 34008 ft | 456 kts | 349° |
| 2026-05-07 15:24 | 45.70613 | 7.57186 | 34004 ft | 456 kts | 349° |
| 2026-05-07 15:24 | 45.76915 | 7.56558 | 34028 ft | 456 kts | 349° |
| 2026-05-07 15:25 | 45.83265 | 7.55924 | 34014 ft | 455 kts | 349° |
| 2026-05-07 15:25 | 45.89549 | 7.55284 | 34008 ft | 454 kts | 349° |
| 2026-05-07 15:26 | 45.95858 | 7.54633 | 34009 ft | 453 kts | 349° |
| 2026-05-07 15:26 | 46.02189 | 7.54288 | 34011 ft | 456 kts | 354° |
| 2026-05-07 15:27 | 46.08525 | 7.54412 | 34013 ft | 457 kts | 355° |
| 2026-05-07 15:27 | 46.14895 | 7.54564 | 34030 ft | 456 kts | 355° |
| 2026-05-07 15:28 | 46.21202 | 7.54596 | 34017 ft | 455 kts | 354° |
| 2026-05-07 15:28 | 46.27541 | 7.54580 | 34016 ft | 454 kts | 354° |
| 2026-05-07 15:29 | 46.33884 | 7.54574 | 34031 ft | 454 kts | 355° |
| 2026-05-07 15:29 | 46.40178 | 7.54588 | 34029 ft | 454 kts | 355° |
| 2026-05-07 15:30 | 46.46470 | 7.54595 | 34025 ft | 453 kts | 355° |
| 2026-05-07 15:30 | 46.52786 | 7.54604 | 34028 ft | 453 kts | 355° |
| 2026-05-07 15:31 | 46.59096 | 7.54616 | 34030 ft | 453 kts | 355° |
| 2026-05-07 15:31 | 46.65386 | 7.54622 | 34025 ft | 453 kts | 355° |
| 2026-05-07 15:32 | 46.71700 | 7.54629 | 34013 ft | 452 kts | 354° |
| 2026-05-07 15:32 | 46.78010 | 7.54634 | 34030 ft | 453 kts | 355° |
| 2026-05-07 15:33 | 46.84285 | 7.54646 | 34031 ft | 453 kts | 355° |
| 2026-05-07 15:33 | 46.90596 | 7.54659 | 34030 ft | 452 kts | 355° |
| 2026-05-07 15:34 | 46.96877 | 7.54668 | 34043 ft | 452 kts | 355° |
| 2026-05-07 15:34 | 47.03178 | 7.54672 | 34036 ft | 452 kts | 355° |
| 2026-05-07 15:35 | 47.09453 | 7.54684 | 34029 ft | 452 kts | 355° |
| 2026-05-07 15:35 | 47.15758 | 7.54697 | 34045 ft | 452 kts | 355° |
| 2026-05-07 15:36 | 47.22012 | 7.54706 | 34037 ft | 451 kts | 355° |
| 2026-05-07 15:36 | 47.28302 | 7.54711 | 34035 ft | 451 kts | 355° |
| 2026-05-07 15:37 | 47.34584 | 7.54713 | 34050 ft | 451 kts | 355° |
| 2026-05-07 15:37 | 47.40831 | 7.54724 | 34039 ft | 450 kts | 355° |
| 2026-05-07 15:38 | 47.47115 | 7.54737 | 34037 ft | 450 kts | 355° |
| 2026-05-07 15:38 | 47.53341 | 7.54738 | 34038 ft | 450 kts | 355° |
| 2026-05-07 15:39 | 47.59618 | 7.54745 | 34048 ft | 450 kts | 356° |
| 2026-05-07 15:39 | 47.65879 | 7.54761 | 34046 ft | 449 kts | 356° |
| 2026-05-07 15:40 | 47.72083 | 7.54568 | 34053 ft | 445 kts | 349° |
| 2026-05-07 15:40 | 47.77975 | 7.52168 | 34058 ft | 436 kts | 333° |
| 2026-05-07 15:41 | 47.83539 | 7.48547 | 34042 ft | 436 kts | 333° |
| 2026-05-07 15:41 | 47.89072 | 7.44956 | 34043 ft | 436 kts | 333° |
| 2026-05-07 15:42 | 47.94643 | 7.41344 | 34044 ft | 436 kts | 333° |
| 2026-05-07 15:42 | 48.00185 | 7.37739 | 34066 ft | 436 kts | 333° |
| 2026-05-07 15:43 | 48.05760 | 7.34096 | 34057 ft | 437 kts | 333° |
| 2026-05-07 15:43 | 48.11305 | 7.30468 | 34052 ft | 437 kts | 333° |
| 2026-05-07 15:44 | 48.16895 | 7.26813 | 34044 ft | 437 kts | 333° |
| 2026-05-07 15:44 | 48.22466 | 7.23156 | 34060 ft | 436 kts | 334° |
| 2026-05-07 15:45 | 48.28000 | 7.19509 | 34054 ft | 436 kts | 334° |
| 2026-05-07 15:45 | 48.33570 | 7.15830 | 34051 ft | 436 kts | 334° |
| 2026-05-07 15:46 | 48.41879 | 7.10323 | 34049 ft | 436 kts | 334° |
| 2026-05-07 15:47 | 48.47439 | 7.06616 | 34059 ft | 436 kts | 334° |
| 2026-05-07 15:47 | 48.52995 | 7.02915 | 34053 ft | 437 kts | 334° |
| 2026-05-07 15:48 | 48.58537 | 6.99230 | 34049 ft | 437 kts | 334° |
| 2026-05-07 15:48 | 48.64109 | 6.95511 | 34046 ft | 437 kts | 334° |
| 2026-05-07 15:49 | 48.69646 | 6.91794 | 34053 ft | 436 kts | 334° |
| 2026-05-07 15:49 | 48.75196 | 6.88061 | 34055 ft | 436 kts | 333° |
| 2026-05-07 15:50 | 48.80706 | 6.84335 | 34051 ft | 435 kts | 333° |
| 2026-05-07 15:50 | 48.86248 | 6.80588 | 34047 ft | 435 kts | 333° |
| 2026-05-07 15:51 | 48.91801 | 6.76833 | 34058 ft | 435 kts | 334° |
| 2026-05-07 15:51 | 48.97312 | 6.73097 | 34049 ft | 435 kts | 334° |
| 2026-05-07 15:52 | 49.01922 | 6.69961 | 34049 ft | 435 kts | 334° |
| 2026-05-07 15:52 | 49.07438 | 6.66197 | 34047 ft | 435 kts | 334° |
| 2026-05-07 15:53 | 49.13885 | 6.61786 | 34048 ft | 436 kts | 333° |
| 2026-05-07 15:53 | 49.18505 | 6.58617 | 34037 ft | 437 kts | 333° |
| 2026-05-07 15:54 | 49.24075 | 6.54789 | 34031 ft | 437 kts | 333° |
| 2026-05-07 15:54 | 49.29601 | 6.50984 | 34031 ft | 438 kts | 333° |
| 2026-05-07 15:55 | 49.35175 | 6.47135 | 34041 ft | 438 kts | 333° |
| 2026-05-07 15:55 | 49.40715 | 6.43299 | 34042 ft | 438 kts | 333° |
| 2026-05-07 15:56 | 49.46250 | 6.39458 | 34045 ft | 438 kts | 333° |
| 2026-05-07 15:56 | 49.51863 | 6.35704 | 34047 ft | 439 kts | 335° |
| 2026-05-07 15:57 | 49.57486 | 6.32145 | 34060 ft | 439 kts | 335° |
| 2026-05-07 15:57 | 49.63147 | 6.28546 | 34055 ft | 439 kts | 335° |
| 2026-05-07 15:58 | 49.68784 | 6.24836 | 34049 ft | 440 kts | 334° |
| 2026-05-07 15:58 | 49.74357 | 6.21019 | 34043 ft | 440 kts | 333° |
| 2026-05-07 15:58 | 49.77167 | 6.19085 | 33898 ft | 441 kts | 334° |
| 2026-05-07 15:59 | 49.79980 | 6.17160 | 33615 ft | 441 kts | 334° |
| 2026-05-07 15:59 | 49.82789 | 6.15243 | 33350 ft | 442 kts | 334° |
| 2026-05-07 15:59 | 49.85572 | 6.13348 | 32889 ft | 442 kts | 334° |
| 2026-05-07 15:59 | 49.88437 | 6.11485 | 31767 ft | 448 kts | 336° |
| 2026-05-07 16:00 | 49.91362 | 6.09747 | 30768 ft | 450 kts | 338° |
| 2026-05-07 16:00 | 49.94328 | 6.08086 | 29597 ft | 454 kts | 339° |
| 2026-05-07 16:00 | 49.97324 | 6.06458 | 28437 ft | 456 kts | 339° |
| 2026-05-07 16:00 | 50.00308 | 6.04836 | 27293 ft | 457 kts | 339° |
| 2026-05-07 16:01 | 50.03313 | 6.03169 | 26347 ft | 456 kts | 338° |
| 2026-05-07 16:01 | 50.06264 | 6.01501 | 25665 ft | 448 kts | 338° |
| 2026-05-07 16:01 | 50.09187 | 5.99821 | 24882 ft | 445 kts | 338° |
| 2026-05-07 16:01 | 50.11339 | 5.98572 | 24304 ft | 442 kts | 338° |
| 2026-05-07 16:02 | 50.14091 | 5.96970 | 23575 ft | 440 kts | 337° |
| 2026-05-07 16:02 | 50.16949 | 5.95305 | 22758 ft | 436 kts | 338° |
| 2026-05-07 16:02 | 50.19748 | 5.93676 | 22076 ft | 431 kts | 338° |
| 2026-05-07 16:02 | 50.22548 | 5.92052 | 21391 ft | 426 kts | 338° |
| 2026-05-07 16:03 | 50.25325 | 5.90446 | 20721 ft | 422 kts | 338° |
| 2026-05-07 16:03 | 50.28072 | 5.88857 | 20093 ft | 417 kts | 338° |
| 2026-05-07 16:03 | 50.30749 | 5.87306 | 19485 ft | 414 kts | 338° |
| 2026-05-07 16:03 | 50.33439 | 5.85743 | 18888 ft | 410 kts | 338° |
| 2026-05-07 16:04 | 50.36109 | 5.84188 | 18315 ft | 407 kts | 338° |
| 2026-05-07 16:04 | 50.38757 | 5.82643 | 17708 ft | 403 kts | 338° |
| 2026-05-07 16:04 | 50.41376 | 5.81116 | 17173 ft | 398 kts | 338° |
| 2026-05-07 16:04 | 50.43922 | 5.79630 | 16640 ft | 394 kts | 338° |
| 2026-05-07 16:05 | 50.46484 | 5.78129 | 16103 ft | 390 kts | 338° |
| 2026-05-07 16:05 | 50.49017 | 5.76643 | 15561 ft | 386 kts | 338° |
| 2026-05-07 16:05 | 50.51532 | 5.75166 | 15035 ft | 383 kts | 338° |
| 2026-05-07 16:05 | 50.54002 | 5.73614 | 14452 ft | 380 kts | 332° |
| 2026-05-07 16:06 | 50.56181 | 5.71381 | 13893 ft | 376 kts | 319° |
| 2026-05-07 16:06 | 50.57966 | 5.68397 | 13253 ft | 373 kts | 305° |
| 2026-05-07 16:06 | 50.59244 | 5.64876 | 12644 ft | 369 kts | 292° |
| 2026-05-07 16:06 | 50.59985 | 5.61033 | 12039 ft | 365 kts | 282° |
| 2026-05-07 16:07 | 50.60529 | 5.57140 | 11423 ft | 362 kts | 282° |
| 2026-05-07 16:07 | 50.61062 | 5.53335 | 11126 ft | 354 kts | 282° |
| 2026-05-07 16:07 | 50.61581 | 5.49630 | 11058 ft | 336 kts | 281° |
| 2026-05-07 16:07 | 50.62065 | 5.46133 | 11065 ft | 317 kts | 281° |
| 2026-05-07 16:08 | 50.62523 | 5.42819 | 10894 ft | 300 kts | 281° |
| 2026-05-07 16:08 | 50.62958 | 5.39664 | 10412 ft | 290 kts | 281° |
| 2026-05-07 16:08 | 50.63383 | 5.36576 | 10092 ft | 287 kts | 281° |
| 2026-05-07 16:08 | 50.63799 | 5.33551 | 9931 ft | 285 kts | 281° |
| 2026-05-07 16:09 | 50.64219 | 5.30496 | 9794 ft | 284 kts | 281° |
| 2026-05-07 16:09 | 50.64634 | 5.27448 | 9662 ft | 284 kts | 281° |
| 2026-05-07 16:09 | 50.65049 | 5.24391 | 9445 ft | 284 kts | 281° |
| 2026-05-07 16:09 | 50.65458 | 5.21390 | 9080 ft | 282 kts | 281° |
| 2026-05-07 16:10 | 50.65858 | 5.18366 | 8697 ft | 280 kts | 277° |
| 2026-05-07 16:10 | 50.65901 | 5.15322 | 8316 ft | 277 kts | 262° |
| 2026-05-07 16:10 | 50.65442 | 5.12438 | 7946 ft | 274 kts | 247° |
| 2026-05-07 16:10 | 50.64663 | 5.09697 | 7573 ft | 273 kts | 245° |
| 2026-05-07 16:11 | 50.63877 | 5.06971 | 7189 ft | 272 kts | 245° |
| 2026-05-07 16:11 | 50.63136 | 5.04216 | 6724 ft | 273 kts | 253° |
| 2026-05-07 16:11 | 50.62683 | 5.01361 | 6375 ft | 270 kts | 257° |
| 2026-05-07 16:11 | 50.62290 | 4.98471 | 5976 ft | 267 kts | 258° |
| 2026-05-07 16:12 | 50.61907 | 4.95608 | 5607 ft | 266 kts | 258° |
| 2026-05-07 16:12 | 50.61522 | 4.92756 | 5386 ft | 267 kts | 258° |
| 2026-05-07 16:12 | 50.61091 | 4.89945 | 5208 ft | 267 kts | 251° |
| 2026-05-07 16:12 | 50.60438 | 4.87210 | 5046 ft | 266 kts | 248° |
| 2026-05-07 16:13 | 50.59743 | 4.84502 | 4918 ft | 267 kts | 248° |
| 2026-05-07 16:13 | 50.59043 | 4.81797 | 4789 ft | 266 kts | 248° |
| 2026-05-07 16:13 | 50.58342 | 4.79097 | 4656 ft | 266 kts | 248° |
| 2026-05-07 16:13 | 50.57639 | 4.76393 | 4525 ft | 266 kts | 248° |
| 2026-05-07 16:14 | 50.56946 | 4.73732 | 4396 ft | 266 kts | 248° |
| 2026-05-07 16:14 | 50.56241 | 4.71033 | 4264 ft | 266 kts | 248° |
| 2026-05-07 16:14 | 50.55539 | 4.68338 | 4139 ft | 266 kts | 248° |
| 2026-05-07 16:14 | 50.54839 | 4.65649 | 4006 ft | 266 kts | 248° |
| 2026-05-07 16:15 | 50.54145 | 4.62956 | 3891 ft | 265 kts | 248° |
| 2026-05-07 16:15 | 50.53547 | 4.60202 | 3757 ft | 266 kts | 252° |
| 2026-05-07 16:15 | 50.53007 | 4.57457 | 3631 ft | 265 kts | 252° |
| 2026-05-07 16:15 | 50.52467 | 4.54673 | 3504 ft | 266 kts | 253° |
| 2026-05-07 16:16 | 50.51928 | 4.51897 | 3422 ft | 265 kts | 253° |
| 2026-05-07 16:16 | 50.51388 | 4.49116 | 3345 ft | 265 kts | 253° |
| 2026-05-07 16:16 | 50.50856 | 4.46382 | 3271 ft | 264 kts | 252° |
| 2026-05-07 16:16 | 50.50320 | 4.43625 | 3190 ft | 258 kts | 252° |
| 2026-05-07 16:17 | 50.49811 | 4.40996 | 3073 ft | 245 kts | 253° |
| 2026-05-07 16:17 | 50.49324 | 4.38498 | 2945 ft | 234 kts | 252° |
| 2026-05-07 16:17 | 50.48858 | 4.36093 | 2818 ft | 225 kts | 252° |
| 2026-05-07 16:17 | 50.48410 | 4.33776 | 2684 ft | 217 kts | 252° |
| 2026-05-07 16:18 | 50.47978 | 4.31551 | 2580 ft | 213 kts | 252° |
| 2026-05-07 16:18 | 50.47603 | 4.29301 | 2497 ft | 212 kts | 259° |
| 2026-05-07 16:18 | 50.47344 | 4.27016 | 2505 ft | 211 kts | 257° |
| 2026-05-07 16:18 | 50.46921 | 4.24838 | 2508 ft | 211 kts | 246° |
| 2026-05-07 16:19 | 50.46334 | 4.22722 | 2509 ft | 211 kts | 245° |
| 2026-05-07 16:19 | 50.45705 | 4.20624 | 2508 ft | 211 kts | 236° |
| 2026-05-07 16:19 | 50.44646 | 4.19092 | 2514 ft | 208 kts | 204° |
| 2026-05-07 16:19 | 50.43246 | 4.18655 | 2508 ft | 206 kts | 173° |
| 2026-05-07 16:20 | 50.41930 | 4.19312 | 2531 ft | 192 kts | 153° |
| 2026-05-07 16:20 | 50.40763 | 4.20209 | 2525 ft | 186 kts | 145° |
| 2026-05-07 16:20 | 50.39941 | 4.21708 | 2502 ft | 181 kts | 112° |
| 2026-05-07 16:20 | 50.39770 | 4.23636 | 2505 ft | 180 kts | 81° |
| 2026-05-07 16:21 | 50.40210 | 4.25479 | 2503 ft | 182 kts | 65° |
| 2026-05-07 16:21 | 50.40741 | 4.27283 | 2507 ft | 182 kts | 66° |
| 2026-05-07 16:21 | 50.41262 | 4.29063 | 2507 ft | 181 kts | 66° |
| 2026-05-07 16:21 | 50.41770 | 4.30801 | 2498 ft | 169 kts | 66° |
| 2026-05-07 16:22 | 50.42248 | 4.32440 | 2281 ft | 158 kts | 66° |
| 2026-05-07 16:22 | 50.42685 | 4.33938 | 2058 ft | 143 kts | 66° |
| 2026-05-07 16:22 | 50.43093 | 4.35311 | 1852 ft | 139 kts | 65° |
| 2026-05-07 16:22 | 50.43503 | 4.36657 | 1660 ft | 137 kts | 66° |
| 2026-05-07 16:23 | 50.43898 | 4.38009 | 1457 ft | 135 kts | 66° |
| 2026-05-07 16:23 | 50.44282 | 4.39364 | 1295 ft | 135 kts | 67° |
| 2026-05-07 16:23 | 50.44660 | 4.40718 | 1101 ft | 135 kts | 66° |
| 2026-05-07 16:23 | 50.45045 | 4.42053 | 937 ft | 134 kts | 65° |
| 2026-05-07 16:24 | 50.45433 | 4.43379 | 749 ft | 134 kts | 65° |
| 2026-05-07 16:24 | 50.45816 | 4.44700 | 603 ft | 128 kts | 65° |
| 2026-05-07 16:24 | 50.46118 | 4.45745 | 595 ft | 77 kts | 65° |
| 2026-05-07 16:24 | 50.46271 | 4.46273 | 589 ft | 37 kts | 65° |
| 2026-05-07 16:25 | 50.46356 | 4.46562 | 590 ft | 29 kts | 65° |
| 2026-05-07 16:25 | 50.46433 | 4.46823 | 594 ft | 17 kts | 62° |
| 2026-05-07 16:25 | 50.46510 | 4.46885 | 594 ft | 13 kts | 354° |
| 2026-05-07 16:25 | 50.46575 | 4.46848 | 594 ft | 0 kts | 335° |
| 2026-05-07 16:26 | 50.46577 | 4.46846 | 594 ft | 1 kts | 335° |
| 2026-05-07 16:26 | 50.46595 | 4.46833 | 593 ft | 7 kts | 335° |
| 2026-05-07 16:26 | 50.46629 | 4.46809 | 592 ft | 8 kts | 335° |
| 2026-05-07 16:27 | 50.46690 | 4.46834 | 590 ft | 7 kts | 60° |
| 2026-05-07 16:27 | 50.46710 | 4.46902 | 590 ft | 7 kts | 59° |
| 2026-05-07 16:27 | 50.46758 | 4.46910 | 586 ft | 7 kts | 341° |
| 2026-05-07 16:27 | 50.46799 | 4.46880 | 585 ft | 2 kts | 335° |
| 2026-05-07 16:28 | 50.46807 | 4.46874 | 585 ft | 0 kts | 335° |